Moab, UT

9:51 PM MST on February 21, 2018 (GMT -0700)
Mountain View | | Change Station

Elev 4091 ft 38.56 °N, 109.55 °W | Updated 34 seconds ago

Mostly Cloudy
Mostly Cloudy
35.7 °F
Feels Like 36 °F
N
2.0
Wind Variable Wind from NNW

Today
High -- | Low -- °F
--% Chance of Precip.
Yesterday
High -- | Low -- °F
Precip. -- in
Pressure 30.09 in
Visibility 10.0 miles
Clouds Overcast 6500 ft
Windchill 36 °F
Dew Point 18 °F
Humidity 49%
Rainfall 0.00 in
Snow Depth Not available.
7:01 AM 6:02 PM
Waxing Crescent, 37% visible
METAR KCNY 220353Z AUTO 04007KT 10SM OVC065 01/M09 A3002 RMK AO2 SLP189 T00061089
Pressure 30.09 in
Visibility 10.0 miles
Clouds Overcast 6500 ft
Windchill 36 °F
Dew Point 18 °F
Humidity 49%
Rainfall 0.00 in
Snow Depth Not available.
7:01 AM 6:02 PM
Waxing Crescent, 37% visible
METAR KCNY 220353Z AUTO 04007KT 10SM OVC065 01/M09 A3002 RMK AO2 SLP189 T00061089

Get Severe Weather Alerts

Thanks for signing up!

Be on the lookout for a verification email in your inbox.

You'll start receiving the daily forecast at 6 AM.

×

10-Day Weather Forecast

Almanac

Astronomy

Feb. 21, 2018 Rise Set
Actual Time
Civil Twilight
Nautical Twilight
Astronomical Twilight
Moon
Length of Visible Light
Length of Day
Tomorrow will be .
, % of the Moon is Illuminated

Today's Extremes

State Highs State Lows

Community

WunderPhotos

Category 6

Welcome to Category 6. This is the collective home for Weather Underground's featured writeups by Dr. Jeff Masters (right), Bob Henson (left), Chris Burt, and other regular contributors.

Nearby

Air Quality

  Air Quality AQ Index Pollutant
Not available.

Snow Depth

Station Depth Elevation

Earthquake Activity

City Distance Mag. Time & Date
Minimum magnitude displayed is 2.5.

Coastal Water Temperatures

Place Temperature

Stations

Nearby Weather Stations

Station Location Temp. Windchill Dew Point Humidity Wind Precip. Elev Updated Type
                   

Watches & Warnings

There are currently no watches in effect.